sensor_id;sensor_type;location;lat;lon;timestamp;P1;durP1;ratioP1;P2;durP2;ratioP2
5704;SDS011;2877;48.238;11.160;2023-03-05T00:01:42;35.47;;;16.40;;
5704;SDS011;2877;48.238;11.160;2023-03-05T00:04:12;39.87;;;17.90;;
5704;SDS011;2877;48.238;11.160;2023-03-05T00:06:39;39.70;;;16.70;;
5704;SDS011;2877;48.238;11.160;2023-03-05T00:09:05;34.70;;;16.40;;
5704;SDS011;2877;48.238;11.160;2023-03-05T00:11:31;41.70;;;19.30;;
5704;SDS011;2877;48.238;11.160;2023-03-05T00:13:57;36.93;;;17.77;;
5704;SDS011;2877;48.238;11.160;2023-03-05T00:16:25;37.30;;;18.70;;
5704;SDS011;2877;48.238;11.160;2023-03-05T00:18:53;33.03;;;15.43;;
5704;SDS011;2877;48.238;11.160;2023-03-05T00:21:26;35.03;;;16.00;;
5704;SDS011;2877;48.238;11.160;2023-03-05T00:23:55;31.77;;;16.17;;
5704;SDS011;2877;48.238;11.160;2023-03-05T00:26:23;31.50;;;16.23;;
5704;SDS011;2877;48.238;11.160;2023-03-05T00:28:50;39.63;;;17.60;;
5704;SDS011;2877;48.238;11.160;2023-03-05T00:31:17;36.37;;;17.17;;
5704;SDS011;2877;48.238;11.160;2023-03-05T00:33:57;46.03;;;20.00;;
5704;SDS011;2877;48.238;11.160;2023-03-05T00:36:25;39.93;;;18.30;;
5704;SDS011;2877;48.238;11.160;2023-03-05T00:38:51;39.57;;;17.23;;
5704;SDS011;2877;48.238;11.160;2023-03-05T00:41:17;46.20;;;18.23;;
5704;SDS011;2877;48.238;11.160;2023-03-05T00:43:43;39.63;;;18.53;;
5704;SDS011;2877;48.238;11.160;2023-03-05T00:46:09;38.27;;;18.00;;
5704;SDS011;2877;48.238;11.160;2023-03-05T00:48:34;42.57;;;20.10;;
5704;SDS011;2877;48.238;11.160;2023-03-05T00:51:00;46.43;;;19.80;;
5704;SDS011;2877;48.238;11.160;2023-03-05T00:53:25;41.87;;;19.27;;
5704;SDS011;2877;48.238;11.160;2023-03-05T00:55:51;48.30;;;19.00;;
5704;SDS011;2877;48.238;11.160;2023-03-05T00:58:17;36.57;;;18.57;;
5704;SDS011;2877;48.238;11.160;2023-03-05T01:00:42;41.70;;;18.60;;
5704;SDS011;2877;48.238;11.160;2023-03-05T01:03:08;38.57;;;17.90;;
5704;SDS011;2877;48.238;11.160;2023-03-05T01:05:33;38.50;;;18.07;;
5704;SDS011;2877;48.238;11.160;2023-03-05T01:07:59;36.97;;;18.30;;
5704;SDS011;2877;48.238;11.160;2023-03-05T01:10:25;39.77;;;18.97;;
5704;SDS011;2877;48.238;11.160;2023-03-05T01:12:51;43.73;;;18.23;;
5704;SDS011;2877;48.238;11.160;2023-03-05T01:15:20;36.40;;;17.70;;
5704;SDS011;2877;48.238;11.160;2023-03-05T01:17:46;37.57;;;17.70;;
5704;SDS011;2877;48.238;11.160;2023-03-05T01:20:12;41.40;;;17.80;;
5704;SDS011;2877;48.238;11.160;2023-03-05T01:22:39;42.73;;;18.27;;
5704;SDS011;2877;48.238;11.160;2023-03-05T01:25:05;36.87;;;16.67;;
5704;SDS011;2877;48.238;11.160;2023-03-05T01:27:31;39.00;;;17.77;;
5704;SDS011;2877;48.238;11.160;2023-03-05T01:29:57;39.83;;;18.23;;
5704;SDS011;2877;48.238;11.160;2023-03-05T01:32:23;41.10;;;19.27;;
5704;SDS011;2877;48.238;11.160;2023-03-05T01:34:49;38.93;;;17.47;;
5704;SDS011;2877;48.238;11.160;2023-03-05T01:37:14;41.03;;;17.23;;
5704;SDS011;2877;48.238;11.160;2023-03-05T01:39:40;41.80;;;19.10;;
5704;SDS011;2877;48.238;11.160;2023-03-05T01:42:05;34.83;;;17.60;;
5704;SDS011;2877;48.238;11.160;2023-03-05T01:44:31;40.87;;;17.60;;
5704;SDS011;2877;48.238;11.160;2023-03-05T01:46:57;38.90;;;18.10;;
5704;SDS011;2877;48.238;11.160;2023-03-05T01:49:30;34.50;;;17.20;;
5704;SDS011;2877;48.238;11.160;2023-03-05T01:54:55;39.47;;;17.97;;
5704;SDS011;2877;48.238;11.160;2023-03-05T01:57:31;36.00;;;17.97;;
5704;SDS011;2877;48.238;11.160;2023-03-05T02:03:02;38.20;;;18.43;;
5704;SDS011;2877;48.238;11.160;2023-03-05T02:05:31;34.37;;;17.30;;
5704;SDS011;2877;48.238;11.160;2023-03-05T02:08:00;33.07;;;15.00;;
5704;SDS011;2877;48.238;11.160;2023-03-05T02:10:28;32.53;;;15.23;;
5704;SDS011;2877;48.238;11.160;2023-03-05T02:12:57;35.67;;;17.53;;
5704;SDS011;2877;48.238;11.160;2023-03-05T02:15:25;32.67;;;15.37;;
5704;SDS011;2877;48.238;11.160;2023-03-05T02:17:51;32.90;;;16.30;;
5704;SDS011;2877;48.238;11.160;2023-03-05T02:20:24;34.13;;;15.33;;
5704;SDS011;2877;48.238;11.160;2023-03-05T02:22:50;30.00;;;14.90;;
5704;SDS011;2877;48.238;11.160;2023-03-05T02:25:20;37.80;;;16.00;;
5704;SDS011;2877;48.238;11.160;2023-03-05T02:27:53;33.30;;;16.50;;
5704;SDS011;2877;48.238;11.160;2023-03-05T02:30:41;30.00;;;14.80;;
5704;SDS011;2877;48.238;11.160;2023-03-05T02:33:07;30.60;;;15.27;;
5704;SDS011;2877;48.238;11.160;2023-03-05T02:35:33;33.90;;;16.20;;
5704;SDS011;2877;48.238;11.160;2023-03-05T02:37:58;30.80;;;15.00;;
5704;SDS011;2877;48.238;11.160;2023-03-05T02:40:24;30.13;;;14.70;;
5704;SDS011;2877;48.238;11.160;2023-03-05T02:42:50;32.43;;;14.80;;
5704;SDS011;2877;48.238;11.160;2023-03-05T02:45:15;26.43;;;15.07;;
5704;SDS011;2877;48.238;11.160;2023-03-05T02:47:42;30.80;;;14.37;;
5704;SDS011;2877;48.238;11.160;2023-03-05T02:50:08;31.93;;;15.00;;
5704;SDS011;2877;48.238;11.160;2023-03-05T02:52:35;28.20;;;14.03;;
5704;SDS011;2877;48.238;11.160;2023-03-05T02:55:00;28.07;;;13.37;;
5704;SDS011;2877;48.238;11.160;2023-03-05T02:57:26;28.70;;;14.90;;
5704;SDS011;2877;48.238;11.160;2023-03-05T02:59:52;26.10;;;12.93;;
5704;SDS011;2877;48.238;11.160;2023-03-05T03:02:17;28.30;;;13.73;;
5704;SDS011;2877;48.238;11.160;2023-03-05T03:04:43;25.37;;;13.03;;
5704;SDS011;2877;48.238;11.160;2023-03-05T03:07:10;27.33;;;13.60;;
5704;SDS011;2877;48.238;11.160;2023-03-05T03:09:36;30.30;;;13.60;;
5704;SDS011;2877;48.238;11.160;2023-03-05T03:12:03;28.33;;;13.77;;
5704;SDS011;2877;48.238;11.160;2023-03-05T03:14:32;30.83;;;13.80;;
5704;SDS011;2877;48.238;11.160;2023-03-05T03:17:07;29.40;;;13.67;;
5704;SDS011;2877;48.238;11.160;2023-03-05T03:19:37;27.37;;;13.30;;
5704;SDS011;2877;48.238;11.160;2023-03-05T03:22:04;31.50;;;14.40;;
5704;SDS011;2877;48.238;11.160;2023-03-05T03:24:31;28.27;;;13.57;;
5704;SDS011;2877;48.238;11.160;2023-03-05T03:26:57;24.13;;;12.50;;
5704;SDS011;2877;48.238;11.160;2023-03-05T03:29:22;25.53;;;12.97;;
5704;SDS011;2877;48.238;11.160;2023-03-05T03:31:48;29.67;;;13.10;;
5704;SDS011;2877;48.238;11.160;2023-03-05T03:34:14;25.60;;;13.43;;
5704;SDS011;2877;48.238;11.160;2023-03-05T03:36:41;27.10;;;12.77;;
5704;SDS011;2877;48.238;11.160;2023-03-05T03:39:08;24.07;;;12.53;;
5704;SDS011;2877;48.238;11.160;2023-03-05T03:41:34;26.43;;;11.83;;
5704;SDS011;2877;48.238;11.160;2023-03-05T03:44:01;24.60;;;11.33;;
5704;SDS011;2877;48.238;11.160;2023-03-05T03:46:28;30.63;;;13.27;;
5704;SDS011;2877;48.238;11.160;2023-03-05T03:48:54;27.90;;;12.17;;
5704;SDS011;2877;48.238;11.160;2023-03-05T03:51:19;25.87;;;12.50;;
5704;SDS011;2877;48.238;11.160;2023-03-05T03:53:45;28.90;;;11.60;;
5704;SDS011;2877;48.238;11.160;2023-03-05T03:56:10;24.03;;;12.47;;
5704;SDS011;2877;48.238;11.160;2023-03-05T03:58:36;27.37;;;12.63;;
5704;SDS011;2877;48.238;11.160;2023-03-05T04:01:02;26.40;;;11.73;;
5704;SDS011;2877;48.238;11.160;2023-03-05T04:03:27;27.27;;;13.40;;
5704;SDS011;2877;48.238;11.160;2023-03-05T04:05:53;26.13;;;12.53;;
5704;SDS011;2877;48.238;11.160;2023-03-05T04:08:18;27.50;;;13.43;;
5704;SDS011;2877;48.238;11.160;2023-03-05T04:10:44;24.47;;;12.27;;
5704;SDS011;2877;48.238;11.160;2023-03-05T04:13:10;28.10;;;13.60;;
5704;SDS011;2877;48.238;11.160;2023-03-05T04:15:35;27.30;;;12.20;;
5704;SDS011;2877;48.238;11.160;2023-03-05T04:18:01;25.33;;;12.70;;
5704;SDS011;2877;48.238;11.160;2023-03-05T04:20:26;25.80;;;13.63;;
5704;SDS011;2877;48.238;11.160;2023-03-05T04:22:52;23.50;;;12.03;;
5704;SDS011;2877;48.238;11.160;2023-03-05T04:25:17;24.23;;;13.27;;
5704;SDS011;2877;48.238;11.160;2023-03-05T04:27:43;25.77;;;12.23;;
5704;SDS011;2877;48.238;11.160;2023-03-05T04:30:10;23.50;;;12.23;;
5704;SDS011;2877;48.238;11.160;2023-03-05T04:32:38;28.47;;;13.70;;
5704;SDS011;2877;48.238;11.160;2023-03-05T04:35:05;22.83;;;12.23;;
5704;SDS011;2877;48.238;11.160;2023-03-05T04:37:31;25.30;;;13.60;;
5704;SDS011;2877;48.238;11.160;2023-03-05T04:39:57;22.60;;;12.00;;
5704;SDS011;2877;48.238;11.160;2023-03-05T04:42:22;25.43;;;13.90;;
5704;SDS011;2877;48.238;11.160;2023-03-05T04:44:48;25.73;;;12.73;;
5704;SDS011;2877;48.238;11.160;2023-03-05T04:47:15;26.50;;;12.60;;
5704;SDS011;2877;48.238;11.160;2023-03-05T04:49:41;25.50;;;12.50;;
5704;SDS011;2877;48.238;11.160;2023-03-05T04:52:07;27.00;;;13.63;;
5704;SDS011;2877;48.238;11.160;2023-03-05T04:54:33;27.67;;;13.50;;
5704;SDS011;2877;48.238;11.160;2023-03-05T04:56:59;25.73;;;12.23;;
5704;SDS011;2877;48.238;11.160;2023-03-05T04:59:25;23.60;;;12.70;;
5704;SDS011;2877;48.238;11.160;2023-03-05T05:01:50;27.83;;;13.00;;
5704;SDS011;2877;48.238;11.160;2023-03-05T05:04:16;24.23;;;12.00;;
5704;SDS011;2877;48.238;11.160;2023-03-05T05:06:41;29.47;;;13.07;;
5704;SDS011;2877;48.238;11.160;2023-03-05T05:09:07;22.70;;;11.73;;
5704;SDS011;2877;48.238;11.160;2023-03-05T05:11:32;24.20;;;12.40;;
5704;SDS011;2877;48.238;11.160;2023-03-05T05:13:58;29.00;;;13.37;;
5704;SDS011;2877;48.238;11.160;2023-03-05T05:16:23;25.27;;;12.87;;
5704;SDS011;2877;48.238;11.160;2023-03-05T05:18:49;26.30;;;12.43;;
5704;SDS011;2877;48.238;11.160;2023-03-05T05:21:14;24.73;;;12.30;;
5704;SDS011;2877;48.238;11.160;2023-03-05T05:23:42;28.30;;;12.20;;
5704;SDS011;2877;48.238;11.160;2023-03-05T05:26:13;27.13;;;12.27;;
5704;SDS011;2877;48.238;11.160;2023-03-05T05:28:39;28.00;;;14.10;;
5704;SDS011;2877;48.238;11.160;2023-03-05T05:31:10;27.43;;;13.63;;
5704;SDS011;2877;48.238;11.160;2023-03-05T05:33:37;26.30;;;13.03;;
5704;SDS011;2877;48.238;11.160;2023-03-05T05:36:03;26.47;;;12.80;;
5704;SDS011;2877;48.238;11.160;2023-03-05T05:38:29;28.60;;;12.47;;
5704;SDS011;2877;48.238;11.160;2023-03-05T05:41:00;27.73;;;13.33;;
5704;SDS011;2877;48.238;11.160;2023-03-05T05:43:27;26.80;;;13.63;;
5704;SDS011;2877;48.238;11.160;2023-03-05T05:45:52;29.97;;;14.20;;
5704;SDS011;2877;48.238;11.160;2023-03-05T05:48:18;27.43;;;13.70;;
5704;SDS011;2877;48.238;11.160;2023-03-05T05:50:43;28.27;;;13.30;;
5704;SDS011;2877;48.238;11.160;2023-03-05T05:53:09;26.77;;;13.07;;
5704;SDS011;2877;48.238;11.160;2023-03-05T05:55:34;29.60;;;13.60;;
5704;SDS011;2877;48.238;11.160;2023-03-05T05:58:03;27.50;;;13.60;;
5704;SDS011;2877;48.238;11.160;2023-03-05T06:00:28;28.80;;;14.10;;
5704;SDS011;2877;48.238;11.160;2023-03-05T06:02:54;28.03;;;13.60;;
5704;SDS011;2877;48.238;11.160;2023-03-05T06:05:19;29.13;;;14.07;;
5704;SDS011;2877;48.238;11.160;2023-03-05T06:07:45;28.43;;;14.27;;
5704;SDS011;2877;48.238;11.160;2023-03-05T06:10:11;29.00;;;13.40;;
5704;SDS011;2877;48.238;11.160;2023-03-05T06:12:36;28.40;;;14.27;;
5704;SDS011;2877;48.238;11.160;2023-03-05T06:15:02;29.23;;;13.27;;
5704;SDS011;2877;48.238;11.160;2023-03-05T06:17:28;28.27;;;14.70;;
5704;SDS011;2877;48.238;11.160;2023-03-05T06:19:54;25.57;;;13.43;;
5704;SDS011;2877;48.238;11.160;2023-03-05T06:22:20;28.97;;;14.17;;
5704;SDS011;2877;48.238;11.160;2023-03-05T06:24:45;30.83;;;14.43;;
5704;SDS011;2877;48.238;11.160;2023-03-05T06:27:11;30.70;;;14.90;;
5704;SDS011;2877;48.238;11.160;2023-03-05T06:29:36;31.33;;;14.90;;
5704;SDS011;2877;48.238;11.160;2023-03-05T06:32:02;33.20;;;14.73;;
5704;SDS011;2877;48.238;11.160;2023-03-05T06:34:28;27.77;;;14.97;;
5704;SDS011;2877;48.238;11.160;2023-03-05T06:36:53;28.97;;;13.73;;
5704;SDS011;2877;48.238;11.160;2023-03-05T06:39:19;29.87;;;14.67;;
5704;SDS011;2877;48.238;11.160;2023-03-05T06:41:44;28.70;;;13.40;;
5704;SDS011;2877;48.238;11.160;2023-03-05T06:44:10;28.80;;;16.17;;
5704;SDS011;2877;48.238;11.160;2023-03-05T06:46:35;37.97;;;15.27;;
5704;SDS011;2877;48.238;11.160;2023-03-05T06:49:03;27.23;;;14.53;;
5704;SDS011;2877;48.238;11.160;2023-03-05T06:51:30;26.23;;;14.13;;
5704;SDS011;2877;48.238;11.160;2023-03-05T06:54:00;31.07;;;15.27;;
5704;SDS011;2877;48.238;11.160;2023-03-05T06:56:28;33.83;;;15.73;;
5704;SDS011;2877;48.238;11.160;2023-03-05T06:58:54;34.23;;;15.13;;
5704;SDS011;2877;48.238;11.160;2023-03-05T07:01:20;36.23;;;15.13;;
5704;SDS011;2877;48.238;11.160;2023-03-05T07:03:49;31.47;;;15.00;;
5704;SDS011;2877;48.238;11.160;2023-03-05T07:06:16;29.17;;;15.70;;
5704;SDS011;2877;48.238;11.160;2023-03-05T07:08:41;28.20;;;14.40;;
5704;SDS011;2877;48.238;11.160;2023-03-05T07:11:12;35.97;;;14.70;;
5704;SDS011;2877;48.238;11.160;2023-03-05T07:13:40;32.07;;;15.10;;
5704;SDS011;2877;48.238;11.160;2023-03-05T07:16:07;34.07;;;15.47;;
5704;SDS011;2877;48.238;11.160;2023-03-05T07:18:34;31.50;;;15.40;;
5704;SDS011;2877;48.238;11.160;2023-03-05T07:21:03;29.97;;;14.90;;
5704;SDS011;2877;48.238;11.160;2023-03-05T07:23:30;31.40;;;14.87;;
5704;SDS011;2877;48.238;11.160;2023-03-05T07:25:56;34.70;;;14.73;;
5704;SDS011;2877;48.238;11.160;2023-03-05T07:28:24;29.00;;;15.53;;
5704;SDS011;2877;48.238;11.160;2023-03-05T07:30:59;34.93;;;15.50;;
5704;SDS011;2877;48.238;11.160;2023-03-05T07:33:30;29.80;;;15.50;;
5704;SDS011;2877;48.238;11.160;2023-03-05T07:35:56;31.30;;;14.40;;
5704;SDS011;2877;48.238;11.160;2023-03-05T07:38:22;28.43;;;14.23;;
5704;SDS011;2877;48.238;11.160;2023-03-05T07:40:48;28.57;;;14.07;;
5704;SDS011;2877;48.238;11.160;2023-03-05T07:43:14;31.70;;;15.17;;
5704;SDS011;2877;48.238;11.160;2023-03-05T07:45:40;33.03;;;16.07;;
5704;SDS011;2877;48.238;11.160;2023-03-05T07:48:07;31.67;;;14.57;;
5704;SDS011;2877;48.238;11.160;2023-03-05T07:50:37;33.37;;;15.00;;
5704;SDS011;2877;48.238;11.160;2023-03-05T07:53:02;28.00;;;14.57;;
5704;SDS011;2877;48.238;11.160;2023-03-05T07:55:28;29.17;;;14.73;;
5704;SDS011;2877;48.238;11.160;2023-03-05T07:57:54;28.57;;;13.20;;
5704;SDS011;2877;48.238;11.160;2023-03-05T08:00:20;30.83;;;14.47;;
5704;SDS011;2877;48.238;11.160;2023-03-05T08:02:46;31.40;;;15.53;;
5704;SDS011;2877;48.238;11.160;2023-03-05T08:05:12;31.80;;;15.73;;
5704;SDS011;2877;48.238;11.160;2023-03-05T08:07:38;30.07;;;13.87;;
5704;SDS011;2877;48.238;11.160;2023-03-05T08:10:04;28.27;;;13.80;;
5704;SDS011;2877;48.238;11.160;2023-03-05T08:12:30;31.73;;;14.43;;
5704;SDS011;2877;48.238;11.160;2023-03-05T08:14:56;27.23;;;13.73;;
5704;SDS011;2877;48.238;11.160;2023-03-05T08:17:21;30.67;;;13.33;;
5704;SDS011;2877;48.238;11.160;2023-03-05T08:19:47;27.53;;;14.10;;
5704;SDS011;2877;48.238;11.160;2023-03-05T08:22:12;24.60;;;13.27;;
5704;SDS011;2877;48.238;11.160;2023-03-05T08:24:40;34.57;;;15.03;;
5704;SDS011;2877;48.238;11.160;2023-03-05T08:27:06;24.27;;;12.10;;
5704;SDS011;2877;48.238;11.160;2023-03-05T08:29:31;24.57;;;13.17;;
5704;SDS011;2877;48.238;11.160;2023-03-05T08:31:57;28.23;;;13.33;;
5704;SDS011;2877;48.238;11.160;2023-03-05T08:34:23;31.30;;;14.47;;
5704;SDS011;2877;48.238;11.160;2023-03-05T08:36:48;30.07;;;15.00;;
5704;SDS011;2877;48.238;11.160;2023-03-05T08:39:14;28.20;;;15.13;;
5704;SDS011;2877;48.238;11.160;2023-03-05T08:41:40;30.67;;;14.67;;
5704;SDS011;2877;48.238;11.160;2023-03-05T08:44:06;27.70;;;14.17;;
5704;SDS011;2877;48.238;11.160;2023-03-05T08:46:31;28.67;;;14.60;;
5704;SDS011;2877;48.238;11.160;2023-03-05T08:48:57;34.20;;;16.10;;
5704;SDS011;2877;48.238;11.160;2023-03-05T08:51:23;32.47;;;16.00;;
5704;SDS011;2877;48.238;11.160;2023-03-05T08:53:50;29.97;;;15.13;;
5704;SDS011;2877;48.238;11.160;2023-03-05T08:56:17;31.73;;;15.03;;
5704;SDS011;2877;48.238;11.160;2023-03-05T08:58:43;27.17;;;13.00;;
5704;SDS011;2877;48.238;11.160;2023-03-05T09:01:10;31.33;;;15.77;;
5704;SDS011;2877;48.238;11.160;2023-03-05T09:03:36;28.73;;;14.20;;
5704;SDS011;2877;48.238;11.160;2023-03-05T09:06:03;34.53;;;14.80;;
5704;SDS011;2877;48.238;11.160;2023-03-05T09:08:31;25.87;;;13.67;;
5704;SDS011;2877;48.238;11.160;2023-03-05T09:10:57;32.83;;;13.80;;
5704;SDS011;2877;48.238;11.160;2023-03-05T09:13:25;33.60;;;14.43;;
5704;SDS011;2877;48.238;11.160;2023-03-05T09:16:00;27.20;;;13.80;;
5704;SDS011;2877;48.238;11.160;2023-03-05T09:18:28;28.93;;;13.67;;
5704;SDS011;2877;48.238;11.160;2023-03-05T09:20:54;29.23;;;13.63;;
5704;SDS011;2877;48.238;11.160;2023-03-05T09:23:19;30.63;;;13.70;;
5704;SDS011;2877;48.238;11.160;2023-03-05T09:25:45;30.73;;;15.30;;
5704;SDS011;2877;48.238;11.160;2023-03-05T09:28:11;27.43;;;13.37;;
5704;SDS011;2877;48.238;11.160;2023-03-05T09:30:37;33.03;;;12.80;;
5704;SDS011;2877;48.238;11.160;2023-03-05T09:33:03;20.63;;;11.10;;
5704;SDS011;2877;48.238;11.160;2023-03-05T09:35:29;26.73;;;12.93;;
5704;SDS011;2877;48.238;11.160;2023-03-05T09:37:55;25.20;;;12.20;;
5704;SDS011;2877;48.238;11.160;2023-03-05T09:40:20;27.87;;;13.73;;
5704;SDS011;2877;48.238;11.160;2023-03-05T09:42:57;24.93;;;13.00;;
5704;SDS011;2877;48.238;11.160;2023-03-05T09:45:41;25.20;;;12.77;;
5704;SDS011;2877;48.238;11.160;2023-03-05T09:48:16;22.77;;;11.93;;
5704;SDS011;2877;48.238;11.160;2023-03-05T09:50:49;24.23;;;11.00;;
5704;SDS011;2877;48.238;11.160;2023-03-05T09:56:15;28.50;;;12.67;;
5704;SDS011;2877;48.238;11.160;2023-03-05T09:58:51;23.37;;;12.30;;
5704;SDS011;2877;48.238;11.160;2023-03-05T10:03:53;24.13;;;12.13;;
5704;SDS011;2877;48.238;11.160;2023-03-05T10:15:13;26.17;;;13.33;;
5704;SDS011;2877;48.238;11.160;2023-03-05T10:23:21;25.70;;;12.53;;
5704;SDS011;2877;48.238;11.160;2023-03-05T10:34:31;29.23;;;12.47;;
5704;SDS011;2877;48.238;11.160;2023-03-05T10:37:27;28.13;;;12.73;;
5704;SDS011;2877;48.238;11.160;2023-03-05T10:45:22;28.70;;;14.53;;
5704;SDS011;2877;48.238;11.160;2023-03-05T10:47:54;29.50;;;11.70;;
5704;SDS011;2877;48.238;11.160;2023-03-05T10:50:26;27.00;;;12.53;;
5704;SDS011;2877;48.238;11.160;2023-03-05T10:53:05;23.27;;;12.20;;
5704;SDS011;2877;48.238;11.160;2023-03-05T10:55:34;29.43;;;13.50;;
5704;SDS011;2877;48.238;11.160;2023-03-05T10:58:00;23.63;;;11.97;;
5704;SDS011;2877;48.238;11.160;2023-03-05T11:00:34;24.97;;;12.30;;
5704;SDS011;2877;48.238;11.160;2023-03-05T11:03:01;28.00;;;13.13;;
5704;SDS011;2877;48.238;11.160;2023-03-05T11:11:02;29.77;;;12.60;;
5704;SDS011;2877;48.238;11.160;2023-03-05T11:13:43;27.57;;;12.13;;
5704;SDS011;2877;48.238;11.160;2023-03-05T11:16:17;21.80;;;11.90;;
5704;SDS011;2877;48.238;11.160;2023-03-05T11:18:46;28.73;;;12.57;;
5704;SDS011;2877;48.238;11.160;2023-03-05T11:21:20;28.80;;;13.43;;
5704;SDS011;2877;48.238;11.160;2023-03-05T11:26:50;19.87;;;11.10;;
5704;SDS011;2877;48.238;11.160;2023-03-05T11:29:19;22.63;;;12.23;;
5704;SDS011;2877;48.238;11.160;2023-03-05T11:31:50;26.77;;;11.60;;
5704;SDS011;2877;48.238;11.160;2023-03-05T11:37:03;25.20;;;11.53;;
5704;SDS011;2877;48.238;11.160;2023-03-05T11:39:30;24.97;;;10.87;;
5704;SDS011;2877;48.238;11.160;2023-03-05T11:44:45;21.80;;;11.90;;
5704;SDS011;2877;48.238;11.160;2023-03-05T11:47:47;23.77;;;11.10;;
5704;SDS011;2877;48.238;11.160;2023-03-05T11:52:59;20.20;;;10.63;;
5704;SDS011;2877;48.238;11.160;2023-03-05T11:55:40;24.30;;;11.37;;
5704;SDS011;2877;48.238;11.160;2023-03-05T12:01:10;24.70;;;10.17;;
5704;SDS011;2877;48.238;11.160;2023-03-05T12:03:42;19.27;;;10.37;;
5704;SDS011;2877;48.238;11.160;2023-03-05T12:06:13;17.53;;;9.53;;
5704;SDS011;2877;48.238;11.160;2023-03-05T12:08:59;19.53;;;9.67;;
5704;SDS011;2877;48.238;11.160;2023-03-05T12:11:30;19.30;;;10.43;;
5704;SDS011;2877;48.238;11.160;2023-03-05T12:16:50;21.83;;;9.73;;
5704;SDS011;2877;48.238;11.160;2023-03-05T12:19:28;26.30;;;10.37;;
5704;SDS011;2877;48.238;11.160;2023-03-05T12:22:14;21.93;;;11.23;;
5704;SDS011;2877;48.238;11.160;2023-03-05T12:24:41;21.87;;;11.93;;
5704;SDS011;2877;48.238;11.160;2023-03-05T12:27:08;22.87;;;11.13;;
5704;SDS011;2877;48.238;11.160;2023-03-05T12:40:19;21.73;;;10.23;;
5704;SDS011;2877;48.238;11.160;2023-03-05T12:42:46;18.43;;;10.70;;
5704;SDS011;2877;48.238;11.160;2023-03-05T12:45:26;21.30;;;10.37;;
5704;SDS011;2877;48.238;11.160;2023-03-05T12:50:45;19.20;;;10.23;;
5704;SDS011;2877;48.238;11.160;2023-03-05T12:53:11;20.33;;;9.37;;
5704;SDS011;2877;48.238;11.160;2023-03-05T12:58:50;20.83;;;10.97;;
5704;SDS011;2877;48.238;11.160;2023-03-05T13:04:14;25.30;;;10.80;;
5704;SDS011;2877;48.238;11.160;2023-03-05T13:06:43;21.77;;;11.10;;
5704;SDS011;2877;48.238;11.160;2023-03-05T13:09:16;20.07;;;10.00;;
5704;SDS011;2877;48.238;11.160;2023-03-05T13:11:47;21.50;;;10.00;;
5704;SDS011;2877;48.238;11.160;2023-03-05T13:14:31;22.00;;;10.33;;
5704;SDS011;2877;48.238;11.160;2023-03-05T13:17:22;21.33;;;10.30;;
5704;SDS011;2877;48.238;11.160;2023-03-05T13:19:48;18.10;;;9.47;;
5704;SDS011;2877;48.238;11.160;2023-03-05T13:22:14;19.27;;;9.73;;
5704;SDS011;2877;48.238;11.160;2023-03-05T13:24:39;18.63;;;9.60;;
5704;SDS011;2877;48.238;11.160;2023-03-05T13:27:18;20.40;;;10.20;;
5704;SDS011;2877;48.238;11.160;2023-03-05T13:29:51;22.13;;;10.17;;
5704;SDS011;2877;48.238;11.160;2023-03-05T13:32:21;25.97;;;10.27;;
5704;SDS011;2877;48.238;11.160;2023-03-05T13:34:50;19.23;;;9.70;;
5704;SDS011;2877;48.238;11.160;2023-03-05T13:37:20;18.70;;;8.60;;
5704;SDS011;2877;48.238;11.160;2023-03-05T13:40:04;22.60;;;10.47;;
5704;SDS011;2877;48.238;11.160;2023-03-05T13:42:50;15.90;;;8.70;;
5704;SDS011;2877;48.238;11.160;2023-03-05T13:45:21;21.73;;;10.53;;
5704;SDS011;2877;48.238;11.160;2023-03-05T13:48:02;18.97;;;9.33;;
5704;SDS011;2877;48.238;11.160;2023-03-05T13:50:30;20.47;;;10.30;;
5704;SDS011;2877;48.238;11.160;2023-03-05T13:53:21;19.97;;;10.30;;
5704;SDS011;2877;48.238;11.160;2023-03-05T13:55:51;23.37;;;12.17;;
5704;SDS011;2877;48.238;11.160;2023-03-05T14:01:15;23.27;;;10.07;;
5704;SDS011;2877;48.238;11.160;2023-03-05T14:04:06;22.93;;;11.10;;
5704;SDS011;2877;48.238;11.160;2023-03-05T14:06:54;19.80;;;10.37;;
5704;SDS011;2877;48.238;11.160;2023-03-05T14:09:41;15.43;;;8.13;;
5704;SDS011;2877;48.238;11.160;2023-03-05T14:14:57;19.30;;;9.53;;
5704;SDS011;2877;48.238;11.160;2023-03-05T14:19:51;19.97;;;9.20;;
5704;SDS011;2877;48.238;11.160;2023-03-05T14:22:52;17.77;;;9.73;;
5704;SDS011;2877;48.238;11.160;2023-03-05T14:25:41;16.27;;;9.53;;
5704;SDS011;2877;48.238;11.160;2023-03-05T14:28:27;17.10;;;9.70;;
5704;SDS011;2877;48.238;11.160;2023-03-05T14:30:53;19.43;;;9.63;;
5704;SDS011;2877;48.238;11.160;2023-03-05T14:33:21;16.10;;;8.90;;
5704;SDS011;2877;48.238;11.160;2023-03-05T14:35:52;13.27;;;8.20;;
5704;SDS011;2877;48.238;11.160;2023-03-05T14:38:20;22.90;;;11.47;;
5704;SDS011;2877;48.238;11.160;2023-03-05T14:40:48;15.60;;;8.83;;
5704;SDS011;2877;48.238;11.160;2023-03-05T14:43:14;18.20;;;9.33;;
5704;SDS011;2877;48.238;11.160;2023-03-05T14:45:40;20.27;;;9.80;;
5704;SDS011;2877;48.238;11.160;2023-03-05T14:48:08;20.50;;;9.87;;
5704;SDS011;2877;48.238;11.160;2023-03-05T14:50:37;18.20;;;9.50;;
5704;SDS011;2877;48.238;11.160;2023-03-05T14:53:18;17.47;;;8.67;;
5704;SDS011;2877;48.238;11.160;2023-03-05T14:55:46;19.67;;;8.40;;
5704;SDS011;2877;48.238;11.160;2023-03-05T14:58:15;15.83;;;7.73;;
5704;SDS011;2877;48.238;11.160;2023-03-05T15:00:43;12.43;;;7.73;;
5704;SDS011;2877;48.238;11.160;2023-03-05T15:03:09;15.50;;;8.10;;
5704;SDS011;2877;48.238;11.160;2023-03-05T15:05:35;15.70;;;7.90;;
5704;SDS011;2877;48.238;11.160;2023-03-05T15:08:02;16.13;;;7.43;;
5704;SDS011;2877;48.238;11.160;2023-03-05T15:10:27;13.87;;;8.00;;
5704;SDS011;2877;48.238;11.160;2023-03-05T15:12:53;18.97;;;8.30;;
5704;SDS011;2877;48.238;11.160;2023-03-05T15:15:19;10.07;;;6.10;;
5704;SDS011;2877;48.238;11.160;2023-03-05T15:17:46;9.80;;;6.20;;
5704;SDS011;2877;48.238;11.160;2023-03-05T15:20:19;9.17;;;5.40;;
5704;SDS011;2877;48.238;11.160;2023-03-05T15:22:49;7.20;;;5.07;;
5704;SDS011;2877;48.238;11.160;2023-03-05T15:25:15;7.97;;;5.77;;
5704;SDS011;2877;48.238;11.160;2023-03-05T15:27:42;8.50;;;5.43;;
5704;SDS011;2877;48.238;11.160;2023-03-05T15:30:10;9.10;;;5.23;;
5704;SDS011;2877;48.238;11.160;2023-03-05T15:32:45;9.93;;;5.97;;
5704;SDS011;2877;48.238;11.160;2023-03-05T15:35:10;8.60;;;5.83;;
5704;SDS011;2877;48.238;11.160;2023-03-05T15:37:36;16.10;;;7.07;;
5704;SDS011;2877;48.238;11.160;2023-03-05T15:40:01;11.00;;;6.40;;
5704;SDS011;2877;48.238;11.160;2023-03-05T15:42:27;11.53;;;6.13;;
5704;SDS011;2877;48.238;11.160;2023-03-05T15:44:52;9.20;;;5.60;;
5704;SDS011;2877;48.238;11.160;2023-03-05T15:47:18;12.63;;;6.33;;
5704;SDS011;2877;48.238;11.160;2023-03-05T15:49:44;11.40;;;6.27;;
5704;SDS011;2877;48.238;11.160;2023-03-05T15:52:09;9.87;;;5.87;;
5704;SDS011;2877;48.238;11.160;2023-03-05T15:54:35;9.93;;;5.80;;
5704;SDS011;2877;48.238;11.160;2023-03-05T15:57:01;13.80;;;6.90;;
5704;SDS011;2877;48.238;11.160;2023-03-05T15:59:27;10.40;;;6.30;;
5704;SDS011;2877;48.238;11.160;2023-03-05T16:01:52;11.33;;;5.70;;
5704;SDS011;2877;48.238;11.160;2023-03-05T16:04:18;9.97;;;6.43;;
5704;SDS011;2877;48.238;11.160;2023-03-05T16:06:44;11.90;;;5.27;;
5704;SDS011;2877;48.238;11.160;2023-03-05T16:09:11;12.27;;;6.70;;
5704;SDS011;2877;48.238;11.160;2023-03-05T16:11:38;16.90;;;6.33;;
5704;SDS011;2877;48.238;11.160;2023-03-05T16:14:11;12.47;;;6.70;;
5704;SDS011;2877;48.238;11.160;2023-03-05T16:16:40;10.40;;;5.60;;